createdAt,value
2022-12-18T00:01:57.293Z,1016.6
2022-12-18T00:22:13.123Z,1016.8
2022-12-18T00:32:21.053Z,1016.7
2022-12-18T00:42:29.010Z,1016.6
2022-12-18T00:52:36.920Z,1016.5
2022-12-18T01:02:45.042Z,1016.5
2022-12-18T01:12:52.797Z,1016.6
2022-12-18T01:23:00.776Z,1016.6
2022-12-18T01:33:08.684Z,1016.6
2022-12-18T01:43:16.597Z,1016.7
2022-12-18T01:53:24.554Z,1016.6
2022-12-18T02:03:32.504Z,1016.5
2022-12-18T02:13:40.893Z,1016.6
2022-12-18T02:23:48.385Z,1016.5
2022-12-18T02:33:56.439Z,1016.5
2022-12-18T02:44:04.249Z,1016.2
2022-12-18T02:54:12.317Z,1016.2
2022-12-18T03:04:20.127Z,1016.4
2022-12-18T03:14:28.185Z,1016.3
2022-12-18T03:24:36.006Z,1016.1
2022-12-18T03:34:44.081Z,1016.1
2022-12-18T03:44:51.873Z,1016.1
2022-12-18T03:54:59.948Z,1016
2022-12-18T04:05:07.752Z,1016
2022-12-18T04:15:15.820Z,1015.9
2022-12-18T04:25:23.629Z,1015.9
2022-12-18T04:35:31.699Z,1015.9
2022-12-18T04:45:39.543Z,1015.9
2022-12-18T04:55:47.589Z,1015.8
2022-12-18T05:05:55.401Z,1015.7
2022-12-18T05:16:03.554Z,1015.7
2022-12-18T05:26:11.295Z,1015.7
2022-12-18T05:36:19.323Z,1015.7
2022-12-18T05:46:27.248Z,1015.7
2022-12-18T05:56:35.218Z,1015.8
2022-12-18T06:06:43.035Z,1016
2022-12-18T06:16:51.087Z,1016.2
2022-12-18T06:26:58.905Z,1016.4
2022-12-18T06:37:06.952Z,1016.2
2022-12-18T06:47:14.778Z,1016
2022-12-18T06:57:22.849Z,1015.9
2022-12-18T07:07:30.680Z,1015.9
2022-12-18T07:17:38.735Z,1015.8
2022-12-18T07:27:46.566Z,1015.9
2022-12-18T07:37:54.622Z,1015.9
2022-12-18T07:48:02.418Z,1015.7
2022-12-18T07:58:10.493Z,1015.7
2022-12-18T08:08:18.286Z,1015.7
2022-12-18T08:18:26.368Z,1015.5
2022-12-18T08:28:34.189Z,1015.2
2022-12-18T08:38:42.249Z,1015
2022-12-18T08:48:50.050Z,1015
2022-12-18T08:58:58.122Z,1015.2
2022-12-18T09:09:05.946Z,1015.2
2022-12-18T09:19:14.004Z,1014.8
2022-12-18T09:29:21.823Z,1014.9
2022-12-18T09:39:29.878Z,1014.9
2022-12-18T09:49:37.704Z,1014.9
2022-12-18T09:59:45.737Z,1014.8
2022-12-18T10:09:53.566Z,1014.5
2022-12-18T10:20:01.655Z,1014.4
2022-12-18T10:30:09.453Z,1014.4
2022-12-18T10:40:22.225Z,1014.2
2022-12-18T10:50:26.277Z,1014.2
2022-12-18T11:00:39.204Z,1014.1
2022-12-18T11:10:41.345Z,1013.9
2022-12-18T11:20:49.159Z,1013.9
2022-12-18T11:30:57.304Z,1013.9
2022-12-18T11:41:05.085Z,1013.6
2022-12-18T11:51:13.146Z,1013.5
2022-12-18T12:01:19.274Z,1013.4
2022-12-18T12:11:27.267Z,1013.5
2022-12-18T12:21:33.281Z,1013.5
2022-12-18T12:31:39.649Z,1013.4
2022-12-18T12:41:45.600Z,1013.2
2022-12-18T12:51:51.884Z,1013.3
2022-12-18T13:01:58.010Z,1013.2
2022-12-18T13:12:05.974Z,1013.3
2022-12-18T13:22:13.782Z,1013.3
2022-12-18T13:32:20.078Z,1013.1
2022-12-18T13:42:26.096Z,1013
2022-12-18T13:52:32.367Z,1012.7
2022-12-18T14:02:38.565Z,1012.6
2022-12-18T14:12:46.511Z,1012.5
2022-12-18T14:22:54.296Z,1012.3
2022-12-18T14:33:00.552Z,1012.4
2022-12-18T14:43:08.408Z,1012.2
2022-12-18T14:53:14.667Z,1012.1
2022-12-18T15:03:20.776Z,1012.1
2022-12-18T15:13:28.761Z,1012
2022-12-18T15:23:36.580Z,1012
2022-12-18T15:33:43.330Z,1011.8
2022-12-18T15:43:50.694Z,1011.9
2022-12-18T15:53:56.972Z,1011.9
2022-12-18T16:04:04.861Z,1012
2022-12-18T16:14:11.073Z,1011.9
2022-12-18T16:24:17.104Z,1011.9
2022-12-18T16:34:24.471Z,1012
2022-12-18T16:44:29.426Z,1011.9
2022-12-18T16:54:35.691Z,1012
2022-12-18T17:04:41.718Z,1011.8
2022-12-18T17:14:49.798Z,1011.7
2022-12-18T17:24:55.826Z,1011.8
2022-12-18T17:35:06.910Z,1011.7
2022-12-18T17:45:08.137Z,1011.5
2022-12-18T17:55:16.191Z,1011.6
2022-12-18T18:05:22.210Z,1011.8
2022-12-18T18:15:30.287Z,1011.9
2022-12-18T18:25:36.322Z,1011.7
2022-12-18T18:35:53.671Z,1011.9
2022-12-18T18:45:50.503Z,1011.9
2022-12-18T19:06:04.663Z,1011.7
2022-12-18T19:16:10.786Z,1011.6
2022-12-18T19:26:31.748Z,1011.6
2022-12-18T19:36:24.800Z,1011.6
2022-12-18T19:46:31.076Z,1011.6
2022-12-18T19:56:38.891Z,1011.4
2022-12-18T20:06:46.960Z,1011.5
2022-12-18T20:16:53.504Z,1011.7
2022-12-18T20:26:59.276Z,1011.7
2022-12-18T20:37:07.091Z,1011.5
2022-12-18T20:47:15.148Z,1011.5
2022-12-18T20:57:21.182Z,1011.7
2022-12-18T21:07:27.460Z,1011.8
2022-12-18T21:17:34.091Z,1011.8
2022-12-18T21:27:39.760Z,1011.5
2022-12-18T21:37:45.823Z,1011.6
2022-12-18T21:47:52.093Z,1011.7
2022-12-18T21:57:59.898Z,1011.5
2022-12-18T22:08:07.978Z,1011.3
2022-12-18T22:18:13.997Z,1011.2
2022-12-18T22:28:20.283Z,1011
2022-12-18T22:38:28.091Z,1010.9
2022-12-18T22:48:36.160Z,1010.8
2022-12-18T22:58:42.252Z,1010.6
2022-12-18T23:08:55.734Z,1010.5
2022-12-18T23:18:56.309Z,1010.4
2022-12-18T23:29:04.350Z,1010.1
2022-12-18T23:39:10.400Z,1010.1
2022-12-18T23:49:22.589Z,1009.9
2022-12-18T23:59:25.674Z,1009.8
